sensor_id;sensor_type;location;lat;lon;timestamp;temperature;humidity
4755;DHT22;2391;47.212;7.542;2023-07-30T00:01:43;22.70;93.10
4755;DHT22;2391;47.212;7.542;2023-07-30T00:04:08;22.70;93.20
4755;DHT22;2391;47.212;7.542;2023-07-30T00:06:34;22.70;93.20
4755;DHT22;2391;47.212;7.542;2023-07-30T00:09:00;22.80;93.20
4755;DHT22;2391;47.212;7.542;2023-07-30T00:11:25;22.80;93.20
4755;DHT22;2391;47.212;7.542;2023-07-30T00:13:51;22.80;93.20
4755;DHT22;2391;47.212;7.542;2023-07-30T00:16:17;22.80;93.10
4755;DHT22;2391;47.212;7.542;2023-07-30T00:18:43;22.80;93.00
4755;DHT22;2391;47.212;7.542;2023-07-30T00:21:08;22.80;93.00
4755;DHT22;2391;47.212;7.542;2023-07-30T00:23:34;22.80;93.00
4755;DHT22;2391;47.212;7.542;2023-07-30T00:26:00;22.80;92.90
4755;DHT22;2391;47.212;7.542;2023-07-30T00:28:25;22.80;92.90
4755;DHT22;2391;47.212;7.542;2023-07-30T00:30:51;22.80;92.90
4755;DHT22;2391;47.212;7.542;2023-07-30T00:33:17;22.80;92.80
4755;DHT22;2391;47.212;7.542;2023-07-30T00:35:42;22.80;92.80
4755;DHT22;2391;47.212;7.542;2023-07-30T00:38:08;22.80;92.90
4755;DHT22;2391;47.212;7.542;2023-07-30T00:40:39;22.80;92.80
4755;DHT22;2391;47.212;7.542;2023-07-30T00:43:03;22.80;92.80
4755;DHT22;2391;47.212;7.542;2023-07-30T00:45:29;22.80;92.70
4755;DHT22;2391;47.212;7.542;2023-07-30T00:47:55;22.80;92.60
4755;DHT22;2391;47.212;7.542;2023-07-30T00:50:20;22.80;92.60
4755;DHT22;2391;47.212;7.542;2023-07-30T00:52:46;22.80;92.60
4755;DHT22;2391;47.212;7.542;2023-07-30T00:55:13;22.80;92.50
4755;DHT22;2391;47.212;7.542;2023-07-30T00:57:41;22.80;92.50
4755;DHT22;2391;47.212;7.542;2023-07-30T01:00:07;22.70;92.50
4755;DHT22;2391;47.212;7.542;2023-07-30T01:02:36;22.70;92.40
4755;DHT22;2391;47.212;7.542;2023-07-30T01:05:02;22.70;92.50
4755;DHT22;2391;47.212;7.542;2023-07-30T01:07:31;22.70;92.60
4755;DHT22;2391;47.212;7.542;2023-07-30T01:10:02;22.70;92.50
4755;DHT22;2391;47.212;7.542;2023-07-30T01:12:30;22.70;92.50
4755;DHT22;2391;47.212;7.542;2023-07-30T01:14:57;22.60;92.50
4755;DHT22;2391;47.212;7.542;2023-07-30T01:17:24;22.70;92.60
4755;DHT22;2391;47.212;7.542;2023-07-30T01:19:55;22.60;92.60
4755;DHT22;2391;47.212;7.542;2023-07-30T01:22:22;22.60;92.60
4755;DHT22;2391;47.212;7.542;2023-07-30T01:24:48;22.60;92.60
4755;DHT22;2391;47.212;7.542;2023-07-30T01:27:19;22.60;92.70
4755;DHT22;2391;47.212;7.542;2023-07-30T01:29:58;22.60;92.70
4755;DHT22;2391;47.212;7.542;2023-07-30T01:32:25;22.60;92.70
4755;DHT22;2391;47.212;7.542;2023-07-30T01:34:56;22.60;92.70
4755;DHT22;2391;47.212;7.542;2023-07-30T01:37:23;22.60;92.70
4755;DHT22;2391;47.212;7.542;2023-07-30T01:39:50;22.60;92.70
4755;DHT22;2391;47.212;7.542;2023-07-30T01:42:16;22.60;92.90
4755;DHT22;2391;47.212;7.542;2023-07-30T01:44:42;22.60;92.90
4755;DHT22;2391;47.212;7.542;2023-07-30T01:47:08;22.60;93.00
4755;DHT22;2391;47.212;7.542;2023-07-30T01:49:34;22.60;93.10
4755;DHT22;2391;47.212;7.542;2023-07-30T01:51:59;22.60;93.10
4755;DHT22;2391;47.212;7.542;2023-07-30T01:54:25;22.60;93.20
4755;DHT22;2391;47.212;7.542;2023-07-30T01:56:52;22.60;93.20
4755;DHT22;2391;47.212;7.542;2023-07-30T01:59:18;22.60;93.20
4755;DHT22;2391;47.212;7.542;2023-07-30T02:01:44;22.60;93.20
4755;DHT22;2391;47.212;7.542;2023-07-30T02:04:10;22.70;93.30
4755;DHT22;2391;47.212;7.542;2023-07-30T02:06:35;22.60;93.10
4755;DHT22;2391;47.212;7.542;2023-07-30T02:09:01;22.70;93.10
4755;DHT22;2391;47.212;7.542;2023-07-30T02:11:27;22.70;93.10
4755;DHT22;2391;47.212;7.542;2023-07-30T02:13:53;22.70;93.10
4755;DHT22;2391;47.212;7.542;2023-07-30T02:16:19;22.70;93.10
4755;DHT22;2391;47.212;7.542;2023-07-30T02:18:45;22.60;93.00
4755;DHT22;2391;47.212;7.542;2023-07-30T02:21:11;22.60;93.10
4755;DHT22;2391;47.212;7.542;2023-07-30T02:23:36;22.60;93.20
4755;DHT22;2391;47.212;7.542;2023-07-30T02:26:02;22.60;93.20
4755;DHT22;2391;47.212;7.542;2023-07-30T02:28:28;22.60;93.20
4755;DHT22;2391;47.212;7.542;2023-07-30T02:30:53;22.60;93.10
4755;DHT22;2391;47.212;7.542;2023-07-30T02:33:19;22.60;93.00
4755;DHT22;2391;47.212;7.542;2023-07-30T02:35:45;22.50;93.20
4755;DHT22;2391;47.212;7.542;2023-07-30T02:38:10;22.50;93.00
4755;DHT22;2391;47.212;7.542;2023-07-30T02:40:36;22.50;93.00
4755;DHT22;2391;47.212;7.542;2023-07-30T02:43:02;22.50;93.10
4755;DHT22;2391;47.212;7.542;2023-07-30T02:45:29;22.50;93.10
4755;DHT22;2391;47.212;7.542;2023-07-30T02:47:55;22.50;93.10
4755;DHT22;2391;47.212;7.542;2023-07-30T02:50:21;22.40;93.00
4755;DHT22;2391;47.212;7.542;2023-07-30T02:52:46;22.40;93.00
4755;DHT22;2391;47.212;7.542;2023-07-30T02:55:12;22.40;93.00
4755;DHT22;2391;47.212;7.542;2023-07-30T02:57:38;22.40;93.10
4755;DHT22;2391;47.212;7.542;2023-07-30T03:00:04;22.40;93.20
4755;DHT22;2391;47.212;7.542;2023-07-30T03:02:30;22.40;93.30
4755;DHT22;2391;47.212;7.542;2023-07-30T03:04:56;22.40;93.30
4755;DHT22;2391;47.212;7.542;2023-07-30T03:07:21;22.50;93.40
4755;DHT22;2391;47.212;7.542;2023-07-30T03:09:48;22.40;93.30
4755;DHT22;2391;47.212;7.542;2023-07-30T03:12:13;22.40;93.40
4755;DHT22;2391;47.212;7.542;2023-07-30T03:14:39;22.40;93.50
4755;DHT22;2391;47.212;7.542;2023-07-30T03:17:05;22.30;93.40
4755;DHT22;2391;47.212;7.542;2023-07-30T03:19:31;22.30;93.50
4755;DHT22;2391;47.212;7.542;2023-07-30T03:21:57;22.30;93.60
4755;DHT22;2391;47.212;7.542;2023-07-30T03:24:22;22.20;93.50
4755;DHT22;2391;47.212;7.542;2023-07-30T03:26:48;22.30;93.50
4755;DHT22;2391;47.212;7.542;2023-07-30T03:29:15;22.40;93.50
4755;DHT22;2391;47.212;7.542;2023-07-30T03:31:40;22.40;93.40
4755;DHT22;2391;47.212;7.542;2023-07-30T03:34:06;22.40;93.20
4755;DHT22;2391;47.212;7.542;2023-07-30T03:36:32;22.30;93.30
4755;DHT22;2391;47.212;7.542;2023-07-30T03:38:57;22.30;93.30
4755;DHT22;2391;47.212;7.542;2023-07-30T03:41:23;22.30;93.50
4755;DHT22;2391;47.212;7.542;2023-07-30T03:43:49;22.20;93.50
4755;DHT22;2391;47.212;7.542;2023-07-30T03:46:14;22.20;93.70
4755;DHT22;2391;47.212;7.542;2023-07-30T03:48:40;22.20;93.80
4755;DHT22;2391;47.212;7.542;2023-07-30T03:51:07;22.20;93.70
4755;DHT22;2391;47.212;7.542;2023-07-30T03:53:33;22.20;93.80
4755;DHT22;2391;47.212;7.542;2023-07-30T03:55:58;22.20;93.60
4755;DHT22;2391;47.212;7.542;2023-07-30T03:58:24;22.20;93.60
4755;DHT22;2391;47.212;7.542;2023-07-30T04:00:50;22.20;93.60
4755;DHT22;2391;47.212;7.542;2023-07-30T04:03:16;22.20;93.70
4755;DHT22;2391;47.212;7.542;2023-07-30T04:05:41;22.20;93.60
4755;DHT22;2391;47.212;7.542;2023-07-30T04:08:10;22.20;93.70
4755;DHT22;2391;47.212;7.542;2023-07-30T04:10:35;22.20;93.60
4755;DHT22;2391;47.212;7.542;2023-07-30T04:13:01;22.30;93.60
4755;DHT22;2391;47.212;7.542;2023-07-30T04:15:27;22.20;93.50
4755;DHT22;2391;47.212;7.542;2023-07-30T04:17:53;22.30;93.60
4755;DHT22;2391;47.212;7.542;2023-07-30T04:20:19;22.20;93.50
4755;DHT22;2391;47.212;7.542;2023-07-30T04:22:45;22.20;93.60
4755;DHT22;2391;47.212;7.542;2023-07-30T04:25:11;22.20;93.60
4755;DHT22;2391;47.212;7.542;2023-07-30T04:27:37;22.10;93.60
4755;DHT22;2391;47.212;7.542;2023-07-30T04:30:05;22.10;93.70
4755;DHT22;2391;47.212;7.542;2023-07-30T04:32:30;22.10;93.70
4755;DHT22;2391;47.212;7.542;2023-07-30T04:34:56;22.10;93.70
4755;DHT22;2391;47.212;7.542;2023-07-30T04:37:22;22.10;93.60
4755;DHT22;2391;47.212;7.542;2023-07-30T04:39:49;22.10;93.60
4755;DHT22;2391;47.212;7.542;2023-07-30T04:42:15;22.10;93.70
4755;DHT22;2391;47.212;7.542;2023-07-30T04:44:41;22.00;93.60
4755;DHT22;2391;47.212;7.542;2023-07-30T04:47:07;22.10;93.70
4755;DHT22;2391;47.212;7.542;2023-07-30T04:49:33;22.10;93.70
4755;DHT22;2391;47.212;7.542;2023-07-30T04:51:59;22.00;93.60
4755;DHT22;2391;47.212;7.542;2023-07-30T04:54:25;22.00;93.70
4755;DHT22;2391;47.212;7.542;2023-07-30T04:56:51;22.00;93.80
4755;DHT22;2391;47.212;7.542;2023-07-30T04:59:16;22.00;93.90
4755;DHT22;2391;47.212;7.542;2023-07-30T05:01:42;22.00;93.90
4755;DHT22;2391;47.212;7.542;2023-07-30T05:04:08;22.00;93.80
4755;DHT22;2391;47.212;7.542;2023-07-30T05:06:33;22.00;93.90
4755;DHT22;2391;47.212;7.542;2023-07-30T05:08:59;22.00;93.80
4755;DHT22;2391;47.212;7.542;2023-07-30T05:11:25;22.10;93.90
4755;DHT22;2391;47.212;7.542;2023-07-30T05:13:51;22.10;93.90
4755;DHT22;2391;47.212;7.542;2023-07-30T05:16:16;22.10;93.80
4755;DHT22;2391;47.212;7.542;2023-07-30T05:18:42;22.10;93.80
4755;DHT22;2391;47.212;7.542;2023-07-30T05:21:08;22.10;93.80
4755;DHT22;2391;47.212;7.542;2023-07-30T05:23:33;22.10;93.80
4755;DHT22;2391;47.212;7.542;2023-07-30T05:25:59;22.10;93.80
4755;DHT22;2391;47.212;7.542;2023-07-30T05:28:25;22.10;93.80
4755;DHT22;2391;47.212;7.542;2023-07-30T05:30:51;22.10;93.90
4755;DHT22;2391;47.212;7.542;2023-07-30T05:33:17;22.10;94.00
4755;DHT22;2391;47.212;7.542;2023-07-30T05:35:43;22.10;94.10
4755;DHT22;2391;47.212;7.542;2023-07-30T05:38:09;22.10;94.10
4755;DHT22;2391;47.212;7.542;2023-07-30T05:40:35;22.10;94.20
4755;DHT22;2391;47.212;7.542;2023-07-30T05:43:01;22.10;94.40
4755;DHT22;2391;47.212;7.542;2023-07-30T05:45:28;22.00;94.50
4755;DHT22;2391;47.212;7.542;2023-07-30T05:47:54;21.90;94.60
4755;DHT22;2391;47.212;7.542;2023-07-30T05:50:20;21.90;94.80
4755;DHT22;2391;47.212;7.542;2023-07-30T05:52:46;21.90;95.00
4755;DHT22;2391;47.212;7.542;2023-07-30T05:55:12;21.90;95.20
4755;DHT22;2391;47.212;7.542;2023-07-30T05:57:38;21.80;95.40
4755;DHT22;2391;47.212;7.542;2023-07-30T06:00:04;21.70;95.50
4755;DHT22;2391;47.212;7.542;2023-07-30T06:02:30;21.60;95.70
4755;DHT22;2391;47.212;7.542;2023-07-30T06:04:56;21.60;96.00
4755;DHT22;2391;47.212;7.542;2023-07-30T06:07:21;21.60;96.30
4755;DHT22;2391;47.212;7.542;2023-07-30T06:09:47;21.60;96.50
4755;DHT22;2391;47.212;7.542;2023-07-30T06:12:13;21.70;96.50
4755;DHT22;2391;47.212;7.542;2023-07-30T06:14:38;21.70;96.40
4755;DHT22;2391;47.212;7.542;2023-07-30T06:17:04;21.60;96.10
4755;DHT22;2391;47.212;7.542;2023-07-30T06:19:30;21.50;96.00
4755;DHT22;2391;47.212;7.542;2023-07-30T06:21:56;21.40;96.20
4755;DHT22;2391;47.212;7.542;2023-07-30T06:24:21;21.30;96.50
4755;DHT22;2391;47.212;7.542;2023-07-30T06:26:47;21.30;96.90
4755;DHT22;2391;47.212;7.542;2023-07-30T06:29:13;21.20;96.60
4755;DHT22;2391;47.212;7.542;2023-07-30T06:31:38;21.20;97.20
4755;DHT22;2391;47.212;7.542;2023-07-30T06:34:04;21.20;97.00
4755;DHT22;2391;47.212;7.542;2023-07-30T06:36:30;21.20;96.60
4755;DHT22;2391;47.212;7.542;2023-07-30T06:38:56;21.10;96.90
4755;DHT22;2391;47.212;7.542;2023-07-30T06:41:21;21.00;97.00
4755;DHT22;2391;47.212;7.542;2023-07-30T06:43:47;21.00;97.10
4755;DHT22;2391;47.212;7.542;2023-07-30T06:46:13;21.00;97.20
4755;DHT22;2391;47.212;7.542;2023-07-30T06:48:38;21.00;97.40
4755;DHT22;2391;47.212;7.542;2023-07-30T06:51:10;21.00;97.50
4755;DHT22;2391;47.212;7.542;2023-07-30T06:53:38;21.10;97.60
4755;DHT22;2391;47.212;7.542;2023-07-30T06:56:04;21.10;97.60
4755;DHT22;2391;47.212;7.542;2023-07-30T06:58:29;21.20;97.50
4755;DHT22;2391;47.212;7.542;2023-07-30T07:00:55;21.30;97.50
4755;DHT22;2391;47.212;7.542;2023-07-30T07:03:21;21.40;97.30
4755;DHT22;2391;47.212;7.542;2023-07-30T07:05:57;21.50;97.40
4755;DHT22;2391;47.212;7.542;2023-07-30T07:08:21;21.70;97.60
4755;DHT22;2391;47.212;7.542;2023-07-30T07:10:47;22.00;96.40
4755;DHT22;2391;47.212;7.542;2023-07-30T07:13:13;22.20;96.20
4755;DHT22;2391;47.212;7.542;2023-07-30T07:15:43;22.40;95.40
4755;DHT22;2391;47.212;7.542;2023-07-30T07:18:09;22.60;94.60
4755;DHT22;2391;47.212;7.542;2023-07-30T07:20:36;22.80;94.20
4755;DHT22;2391;47.212;7.542;2023-07-30T07:23:03;22.80;94.50
4755;DHT22;2391;47.212;7.542;2023-07-30T07:25:29;23.00;94.30
4755;DHT22;2391;47.212;7.542;2023-07-30T07:27:54;23.00;93.70
4755;DHT22;2391;47.212;7.542;2023-07-30T07:30:20;23.10;94.10
4755;DHT22;2391;47.212;7.542;2023-07-30T07:32:46;23.20;93.90
4755;DHT22;2391;47.212;7.542;2023-07-30T07:35:13;23.30;93.80
4755;DHT22;2391;47.212;7.542;2023-07-30T07:37:39;23.40;92.80
4755;DHT22;2391;47.212;7.542;2023-07-30T07:40:06;23.30;92.70
4755;DHT22;2391;47.212;7.542;2023-07-30T07:42:34;23.20;93.00
4755;DHT22;2391;47.212;7.542;2023-07-30T07:45:00;23.20;93.30
4755;DHT22;2391;47.212;7.542;2023-07-30T07:47:26;23.20;93.50
4755;DHT22;2391;47.212;7.542;2023-07-30T07:49:52;23.30;93.00
4755;DHT22;2391;47.212;7.542;2023-07-30T07:52:18;23.30;92.90
4755;DHT22;2391;47.212;7.542;2023-07-30T07:54:44;23.30;92.90
4755;DHT22;2391;47.212;7.542;2023-07-30T07:57:10;23.40;93.10
4755;DHT22;2391;47.212;7.542;2023-07-30T07:59:36;23.40;93.10
4755;DHT22;2391;47.212;7.542;2023-07-30T08:02:02;23.40;93.10
4755;DHT22;2391;47.212;7.542;2023-07-30T08:04:28;23.40;93.00
4755;DHT22;2391;47.212;7.542;2023-07-30T08:06:54;23.40;92.90
4755;DHT22;2391;47.212;7.542;2023-07-30T08:09:19;23.30;92.80
4755;DHT22;2391;47.212;7.542;2023-07-30T08:11:45;23.30;92.90
4755;DHT22;2391;47.212;7.542;2023-07-30T08:14:11;23.30;92.80
4755;DHT22;2391;47.212;7.542;2023-07-30T08:16:36;23.30;92.60
4755;DHT22;2391;47.212;7.542;2023-07-30T08:19:02;23.30;92.50
4755;DHT22;2391;47.212;7.542;2023-07-30T08:21:28;23.30;92.80
4755;DHT22;2391;47.212;7.542;2023-07-30T08:23:54;23.30;92.70
4755;DHT22;2391;47.212;7.542;2023-07-30T08:26:19;23.30;92.80
4755;DHT22;2391;47.212;7.542;2023-07-30T08:28:45;23.30;92.70
4755;DHT22;2391;47.212;7.542;2023-07-30T08:31:11;23.20;92.50
4755;DHT22;2391;47.212;7.542;2023-07-30T08:33:36;23.20;92.50
4755;DHT22;2391;47.212;7.542;2023-07-30T08:36:02;23.20;91.80
4755;DHT22;2391;47.212;7.542;2023-07-30T08:38:29;23.20;91.70
4755;DHT22;2391;47.212;7.542;2023-07-30T08:40:55;23.20;91.50
4755;DHT22;2391;47.212;7.542;2023-07-30T08:43:22;23.20;91.30
4755;DHT22;2391;47.212;7.542;2023-07-30T08:45:47;23.30;91.40
4755;DHT22;2391;47.212;7.542;2023-07-30T08:48:13;23.30;90.00
4755;DHT22;2391;47.212;7.542;2023-07-30T08:50:40;23.40;89.60
4755;DHT22;2391;47.212;7.542;2023-07-30T08:53:07;23.30;87.40
4755;DHT22;2391;47.212;7.542;2023-07-30T08:55:34;23.30;86.90
4755;DHT22;2391;47.212;7.542;2023-07-30T08:58:01;23.30;87.60
4755;DHT22;2391;47.212;7.542;2023-07-30T09:00:34;23.20;88.50
4755;DHT22;2391;47.212;7.542;2023-07-30T09:03:00;23.10;89.00
4755;DHT22;2391;47.212;7.542;2023-07-30T09:05:27;23.00;89.80
4755;DHT22;2391;47.212;7.542;2023-07-30T09:07:55;23.00;90.00
4755;DHT22;2391;47.212;7.542;2023-07-30T09:10:21;23.00;88.80
4755;DHT22;2391;47.212;7.542;2023-07-30T09:12:52;23.00;89.70
4755;DHT22;2391;47.212;7.542;2023-07-30T09:15:17;23.00;90.20
4755;DHT22;2391;47.212;7.542;2023-07-30T09:17:43;23.10;90.30
4755;DHT22;2391;47.212;7.542;2023-07-30T09:20:09;23.20;90.50
4755;DHT22;2391;47.212;7.542;2023-07-30T09:22:35;23.30;90.30
4755;DHT22;2391;47.212;7.542;2023-07-30T09:25:06;23.40;90.80
4755;DHT22;2391;47.212;7.542;2023-07-30T09:27:32;23.50;90.20
4755;DHT22;2391;47.212;7.542;2023-07-30T09:30:00;23.60;90.20
4755;DHT22;2391;47.212;7.542;2023-07-30T09:32:31;23.70;89.60
4755;DHT22;2391;47.212;7.542;2023-07-30T09:37:40;23.80;86.80
4755;DHT22;2391;47.212;7.542;2023-07-30T09:40:08;23.90;86.20
4755;DHT22;2391;47.212;7.542;2023-07-30T09:42:35;24.00;87.50
4755;DHT22;2391;47.212;7.542;2023-07-30T09:45:03;24.10;84.60
4755;DHT22;2391;47.212;7.542;2023-07-30T09:47:33;24.20;82.50
4755;DHT22;2391;47.212;7.542;2023-07-30T09:50:02;24.20;80.70
4755;DHT22;2391;47.212;7.542;2023-07-30T09:52:29;24.30;78.80
4755;DHT22;2391;47.212;7.542;2023-07-30T09:55:15;24.30;78.50
4755;DHT22;2391;47.212;7.542;2023-07-30T09:57:41;24.40;78.40
4755;DHT22;2391;47.212;7.542;2023-07-30T10:00:08;24.40;79.20
4755;DHT22;2391;47.212;7.542;2023-07-30T10:02:39;24.50;77.70
4755;DHT22;2391;47.212;7.542;2023-07-30T10:05:10;24.60;76.10
4755;DHT22;2391;47.212;7.542;2023-07-30T10:07:35;24.60;75.20
4755;DHT22;2391;47.212;7.542;2023-07-30T10:10:02;24.70;76.50
4755;DHT22;2391;47.212;7.542;2023-07-30T10:12:31;24.80;75.10
4755;DHT22;2391;47.212;7.542;2023-07-30T10:14:58;24.90;74.90
4755;DHT22;2391;47.212;7.542;2023-07-30T10:17:23;24.80;73.40
4755;DHT22;2391;47.212;7.542;2023-07-30T10:19:49;24.70;74.00
4755;DHT22;2391;47.212;7.542;2023-07-30T10:22:23;24.50;74.40
4755;DHT22;2391;47.212;7.542;2023-07-30T10:25:00;24.50;74.90
4755;DHT22;2391;47.212;7.542;2023-07-30T10:27:28;24.50;73.90
4755;DHT22;2391;47.212;7.542;2023-07-30T10:33:04;24.40;73.20
4755;DHT22;2391;47.212;7.542;2023-07-30T10:35:42;24.30;72.80
4755;DHT22;2391;47.212;7.542;2023-07-30T10:38:27;24.40;73.30
4755;DHT22;2391;47.212;7.542;2023-07-30T10:40:59;24.50;72.70
4755;DHT22;2391;47.212;7.542;2023-07-30T10:43:40;24.50;73.50
4755;DHT22;2391;47.212;7.542;2023-07-30T10:46:06;24.70;72.00
4755;DHT22;2391;47.212;7.542;2023-07-30T10:48:41;24.80;72.50
4755;DHT22;2391;47.212;7.542;2023-07-30T10:51:11;24.80;72.40
4755;DHT22;2391;47.212;7.542;2023-07-30T10:53:36;24.90;71.10
4755;DHT22;2391;47.212;7.542;2023-07-30T10:56:06;24.80;69.90
4755;DHT22;2391;47.212;7.542;2023-07-30T10:58:34;24.80;71.30
4755;DHT22;2391;47.212;7.542;2023-07-30T11:01:04;24.80;70.70
4755;DHT22;2391;47.212;7.542;2023-07-30T11:03:30;24.80;71.10
4755;DHT22;2391;47.212;7.542;2023-07-30T11:06:00;24.90;71.30
4755;DHT22;2391;47.212;7.542;2023-07-30T11:08:36;25.00;71.50
4755;DHT22;2391;47.212;7.542;2023-07-30T11:11:04;25.10;70.20
4755;DHT22;2391;47.212;7.542;2023-07-30T11:13:40;25.10;70.10
4755;DHT22;2391;47.212;7.542;2023-07-30T11:16:08;25.10;69.30
4755;DHT22;2391;47.212;7.542;2023-07-30T11:18:36;25.10;69.10
4755;DHT22;2391;47.212;7.542;2023-07-30T11:21:07;25.00;69.50
4755;DHT22;2391;47.212;7.542;2023-07-30T11:23:34;25.10;70.80
4755;DHT22;2391;47.212;7.542;2023-07-30T11:26:05;25.20;68.40
4755;DHT22;2391;47.212;7.542;2023-07-30T11:31:02;25.30;67.60
4755;DHT22;2391;47.212;7.542;2023-07-30T11:33:29;25.40;67.80
4755;DHT22;2391;47.212;7.542;2023-07-30T11:35:55;25.50;67.20
4755;DHT22;2391;47.212;7.542;2023-07-30T11:38:24;25.60;67.80
4755;DHT22;2391;47.212;7.542;2023-07-30T11:40:51;25.70;67.20
4755;DHT22;2391;47.212;7.542;2023-07-30T11:43:17;25.80;65.20
4755;DHT22;2391;47.212;7.542;2023-07-30T11:45:44;25.90;64.80
4755;DHT22;2391;47.212;7.542;2023-07-30T11:48:11;25.90;63.80
4755;DHT22;2391;47.212;7.542;2023-07-30T11:50:51;25.90;65.40
4755;DHT22;2391;47.212;7.542;2023-07-30T11:53:17;26.00;66.00
4755;DHT22;2391;47.212;7.542;2023-07-30T11:55:44;26.10;65.90
4755;DHT22;2391;47.212;7.542;2023-07-30T11:58:12;26.10;65.30
4755;DHT22;2391;47.212;7.542;2023-07-30T12:00:40;26.10;66.70
4755;DHT22;2391;47.212;7.542;2023-07-30T12:03:10;26.20;65.00
4755;DHT22;2391;47.212;7.542;2023-07-30T12:05:36;26.20;63.40
4755;DHT22;2391;47.212;7.542;2023-07-30T12:08:02;26.20;63.40
4755;DHT22;2391;47.212;7.542;2023-07-30T12:10:43;26.20;65.20
4755;DHT22;2391;47.212;7.542;2023-07-30T12:13:15;26.20;63.50
4755;DHT22;2391;47.212;7.542;2023-07-30T12:15:50;26.10;62.40
4755;DHT22;2391;47.212;7.542;2023-07-30T12:18:19;26.00;63.80
4755;DHT22;2391;47.212;7.542;2023-07-30T12:20:46;25.90;63.30
4755;DHT22;2391;47.212;7.542;2023-07-30T12:23:12;25.90;62.90
4755;DHT22;2391;47.212;7.542;2023-07-30T12:25:38;26.00;64.20
4755;DHT22;2391;47.212;7.542;2023-07-30T12:28:04;26.00;63.70
4755;DHT22;2391;47.212;7.542;2023-07-30T12:30:30;26.10;63.20
4755;DHT22;2391;47.212;7.542;2023-07-30T12:32:56;26.10;63.10
4755;DHT22;2391;47.212;7.542;2023-07-30T12:35:22;26.20;62.80
4755;DHT22;2391;47.212;7.542;2023-07-30T12:37:48;26.30;63.50
4755;DHT22;2391;47.212;7.542;2023-07-30T12:40:14;26.30;63.30
4755;DHT22;2391;47.212;7.542;2023-07-30T12:42:40;26.40;62.10
4755;DHT22;2391;47.212;7.542;2023-07-30T12:45:06;26.40;62.10
4755;DHT22;2391;47.212;7.542;2023-07-30T12:47:32;26.50;63.80
4755;DHT22;2391;47.212;7.542;2023-07-30T12:49:59;26.60;62.50
4755;DHT22;2391;47.212;7.542;2023-07-30T12:52:25;26.70;63.00
4755;DHT22;2391;47.212;7.542;2023-07-30T12:54:51;26.70;60.90
4755;DHT22;2391;47.212;7.542;2023-07-30T12:57:16;26.70;61.80
4755;DHT22;2391;47.212;7.542;2023-07-30T12:59:42;26.80;61.50
4755;DHT22;2391;47.212;7.542;2023-07-30T13:02:08;26.80;60.60
4755;DHT22;2391;47.212;7.542;2023-07-30T13:04:33;26.90;60.20
4755;DHT22;2391;47.212;7.542;2023-07-30T13:06:59;26.90;58.90
4755;DHT22;2391;47.212;7.542;2023-07-30T13:09:25;26.90;58.70
4755;DHT22;2391;47.212;7.542;2023-07-30T13:11:51;26.80;58.20
4755;DHT22;2391;47.212;7.542;2023-07-30T13:14:16;26.80;58.70
4755;DHT22;2391;47.212;7.542;2023-07-30T13:16:42;26.80;57.90
4755;DHT22;2391;47.212;7.542;2023-07-30T13:19:08;26.70;56.80
4755;DHT22;2391;47.212;7.542;2023-07-30T13:21:34;26.70;58.50
4755;DHT22;2391;47.212;7.542;2023-07-30T13:23:59;26.70;58.50
4755;DHT22;2391;47.212;7.542;2023-07-30T13:26:25;26.70;57.50
4755;DHT22;2391;47.212;7.542;2023-07-30T13:28:51;26.70;58.70
4755;DHT22;2391;47.212;7.542;2023-07-30T13:31:16;26.80;58.40
4755;DHT22;2391;47.212;7.542;2023-07-30T13:33:44;26.90;57.50
4755;DHT22;2391;47.212;7.542;2023-07-30T13:36:12;27.00;57.60
4755;DHT22;2391;47.212;7.542;2023-07-30T13:38:38;27.00;57.00
4755;DHT22;2391;47.212;7.542;2023-07-30T13:41:05;27.00;56.40
4755;DHT22;2391;47.212;7.542;2023-07-30T13:43:32;27.00;56.00
4755;DHT22;2391;47.212;7.542;2023-07-30T13:45:58;27.00;57.30
4755;DHT22;2391;47.212;7.542;2023-07-30T13:48:24;27.00;58.30
4755;DHT22;2391;47.212;7.542;2023-07-30T13:50:50;27.10;60.00
4755;DHT22;2391;47.212;7.542;2023-07-30T13:53:16;27.10;59.10
4755;DHT22;2391;47.212;7.542;2023-07-30T13:55:42;27.10;58.40
4755;DHT22;2391;47.212;7.542;2023-07-30T13:58:08;27.10;58.60
4755;DHT22;2391;47.212;7.542;2023-07-30T14:00:34;27.10;58.70
4755;DHT22;2391;47.212;7.542;2023-07-30T14:02:59;27.10;57.60
4755;DHT22;2391;47.212;7.542;2023-07-30T14:05:25;27.10;57.30
4755;DHT22;2391;47.212;7.542;2023-07-30T14:07:53;27.00;56.90
4755;DHT22;2391;47.212;7.542;2023-07-30T14:10:19;27.00;55.80
4755;DHT22;2391;47.212;7.542;2023-07-30T14:12:45;26.90;56.40
4755;DHT22;2391;47.212;7.542;2023-07-30T14:15:11;26.90;56.40
4755;DHT22;2391;47.212;7.542;2023-07-30T14:17:36;26.90;56.60
4755;DHT22;2391;47.212;7.542;2023-07-30T14:20:03;26.80;57.20
4755;DHT22;2391;47.212;7.542;2023-07-30T14:22:28;26.90;57.70
4755;DHT22;2391;47.212;7.542;2023-07-30T14:24:54;26.90;57.10
4755;DHT22;2391;47.212;7.542;2023-07-30T14:27:20;26.90;57.10
4755;DHT22;2391;47.212;7.542;2023-07-30T14:29:46;26.90;55.90
4755;DHT22;2391;47.212;7.542;2023-07-30T14:32:13;26.90;55.70
4755;DHT22;2391;47.212;7.542;2023-07-30T14:34:39;26.80;55.40
4755;DHT22;2391;47.212;7.542;2023-07-30T14:37:05;26.80;55.80
4755;DHT22;2391;47.212;7.542;2023-07-30T14:39:31;26.80;56.10
4755;DHT22;2391;47.212;7.542;2023-07-30T14:41:56;26.80;55.90
4755;DHT22;2391;47.212;7.542;2023-07-30T14:44:22;26.80;55.70
4755;DHT22;2391;47.212;7.542;2023-07-30T14:46:48;26.80;54.60
4755;DHT22;2391;47.212;7.542;2023-07-30T14:49:13;26.80;55.00
4755;DHT22;2391;47.212;7.542;2023-07-30T14:51:39;26.90;54.00
4755;DHT22;2391;47.212;7.542;2023-07-30T14:54:05;26.90;55.00
4755;DHT22;2391;47.212;7.542;2023-07-30T14:56:31;26.90;54.40
4755;DHT22;2391;47.212;7.542;2023-07-30T14:58:56;26.80;54.30
4755;DHT22;2391;47.212;7.542;2023-07-30T15:01:22;26.80;53.20
4755;DHT22;2391;47.212;7.542;2023-07-30T15:03:48;26.80;54.50
4755;DHT22;2391;47.212;7.542;2023-07-30T15:06:14;26.80;53.30
4755;DHT22;2391;47.212;7.542;2023-07-30T15:08:39;26.80;52.60
4755;DHT22;2391;47.212;7.542;2023-07-30T15:11:05;26.80;52.60
4755;DHT22;2391;47.212;7.542;2023-07-30T15:13:31;26.80;51.30
4755;DHT22;2391;47.212;7.542;2023-07-30T15:15:56;26.80;51.50
4755;DHT22;2391;47.212;7.542;2023-07-30T15:18:22;26.80;52.80
4755;DHT22;2391;47.212;7.542;2023-07-30T15:20:48;26.90;52.50
4755;DHT22;2391;47.212;7.542;2023-07-30T15:23:14;26.90;52.30
4755;DHT22;2391;47.212;7.542;2023-07-30T15:25:40;26.90;53.00
4755;DHT22;2391;47.212;7.542;2023-07-30T15:28:06;26.90;53.70
4755;DHT22;2391;47.212;7.542;2023-07-30T15:30:32;26.90;53.10
4755;DHT22;2391;47.212;7.542;2023-07-30T15:32:57;26.90;51.90
4755;DHT22;2391;47.212;7.542;2023-07-30T15:35:23;26.90;51.10
4755;DHT22;2391;47.212;7.542;2023-07-30T15:37:49;26.80;50.60
4755;DHT22;2391;47.212;7.542;2023-07-30T15:40:17;26.80;50.90
4755;DHT22;2391;47.212;7.542;2023-07-30T15:42:42;26.90;51.90
4755;DHT22;2391;47.212;7.542;2023-07-30T15:45:09;27.00;52.10
4755;DHT22;2391;47.212;7.542;2023-07-30T15:47:34;27.00;50.70
4755;DHT22;2391;47.212;7.542;2023-07-30T15:50:00;26.90;50.70
4755;DHT22;2391;47.212;7.542;2023-07-30T15:52:26;26.80;52.10
4755;DHT22;2391;47.212;7.542;2023-07-30T15:54:52;26.70;53.70
4755;DHT22;2391;47.212;7.542;2023-07-30T15:57:19;26.70;51.90
4755;DHT22;2391;47.212;7.542;2023-07-30T15:59:46;26.70;51.10
4755;DHT22;2391;47.212;7.542;2023-07-30T16:02:13;26.70;50.90
4755;DHT22;2391;47.212;7.542;2023-07-30T16:04:39;26.80;51.10
4755;DHT22;2391;47.212;7.542;2023-07-30T16:07:05;26.80;50.00